Time;durP1;ratioP1;P1;durP2;ratioP2;P2;SDS_P1;SDS_P2;PMS_P1;PMS_P2;Temp;Humidity;BMP_temperature;BMP_pressure;BME280_temperature;BME280_humidity;BME280_pressure;Samples;Min_cycle;Max_cycle;Signal;HPM_P1;HPM_P2
2022/08/09 00:00:07;;;;;;;3.95;2.35;;;20.70;99.90;;;;;;5090928;28;20027;-80
2022/08/09 00:02:32;;;;;;;3.67;2.13;;;20.60;99.90;;;;;;5091147;28;20089;-81
2022/08/09 00:04:59;;;;;;;4.88;2.00;;;20.60;99.90;;;;;;5091138;28;20609;-81
2022/08/09 00:07:24;;;;;;;4.82;2.38;;;20.60;99.90;;;;;;5090784;28;20031;-79
2022/08/09 00:09:50;;;;;;;4.45;2.58;;;20.60;99.90;;;;;;5091288;28;20084;-81
2022/08/09 00:12:16;;;;;;;7.82;2.30;;;20.60;99.90;;;;;;5090820;28;20031;-80
2022/08/09 00:14:41;;;;;;;3.20;2.05;;;20.60;99.90;;;;;;5090931;28;20115;-81
2022/08/09 00:17:07;;;;;;;2.80;1.85;;;20.70;99.90;;;;;;5090644;28;20059;-80
2022/08/09 00:19:33;;;;;;;8.00;2.67;;;20.70;99.90;;;;;;5108352;28;20044;-80
2022/08/09 00:21:58;;;;;;;6.88;2.55;;;20.70;99.90;;;;;;5091241;28;20032;-80
2022/08/09 00:24:25;;;;;;;5.38;2.30;;;20.60;99.90;;;;;;5089194;28;20518;-78
2022/08/09 00:26:51;;;;;;;3.65;2.63;;;20.60;99.90;;;;;;5109164;28;20011;-80
2022/08/09 00:29:17;;;;;;;4.63;2.33;;;20.60;99.90;;;;;;5109604;28;20053;-80
2022/08/09 00:31:42;;;;;;;7.32;2.47;;;20.50;99.90;;;;;;5090063;28;20118;-80
2022/08/09 00:34:08;;;;;;;3.45;1.88;;;20.50;99.90;;;;;;5109075;28;20050;-80
2022/08/09 00:36:34;;;;;;;10.95;2.95;;;20.50;99.90;;;;;;5090710;28;20031;-80
2022/08/09 00:39:00;;;;;;;3.08;2.42;;;20.50;99.90;;;;;;5108513;28;20046;-80
2022/08/09 00:41:25;;;;;;;3.55;2.50;;;20.40;99.90;;;;;;5090431;28;20028;-80
2022/08/09 00:43:51;;;;;;;6.35;2.42;;;20.40;99.90;;;;;;5090325;28;20032;-82
2022/08/09 00:46:17;;;;;;;6.47;2.28;;;20.30;99.90;;;;;;5089747;28;20019;-83
2022/08/09 00:48:44;;;;;;;10.85;3.05;;;20.30;99.90;;;;;;5108136;28;20552;-82
2022/08/09 00:51:10;;;;;;;9.10;2.95;;;20.30;99.90;;;;;;5090363;28;20515;-83
2022/08/09 00:53:37;;;;;;;5.53;2.90;;;20.20;99.90;;;;;;5090975;28;20028;-83
2022/08/09 00:56:06;;;;;;;4.47;2.40;;;20.20;99.90;;;;;;5090878;28;20122;-85
2022/08/09 00:58:35;;;;;;;4.88;2.80;;;20.20;99.90;;;;;;5090616;28;20039;-84
2022/08/09 01:01:17;;;;;;;5.55;3.40;;;20.20;99.90;;;;;;5109024;28;20028;-83
2022/08/09 01:03:53;;;;;;;7.85;2.75;;;20.20;99.90;;;;;;5090514;28;20028;-84
2022/08/09 01:06:24;;;;;;;5.28;2.72;;;20.30;99.90;;;;;;5109645;28;20068;-84
2022/08/09 01:09:16;;;;;;;5.28;2.80;;;20.30;99.90;;;;;;5090732;28;20068;-84
2022/08/09 01:11:54;;;;;;;3.90;2.70;;;20.40;99.90;;;;;;5108605;28;20059;-84
2022/08/09 01:14:27;;;;;;;4.88;2.60;;;20.40;99.90;;;;;;5091553;28;20028;-84
2022/08/09 01:17:02;;;;;;;9.35;3.53;;;20.40;99.90;;;;;;5090151;28;20507;-84
2022/08/09 01:19:42;;;;;;;10.05;2.78;;;20.50;99.90;;;;;;5089695;28;20070;-83
2022/08/09 01:22:26;;;;;;;7.10;2.47;;;20.50;99.90;;;;;;5090152;28;20020;-84
2022/08/09 01:25:01;;;;;;;3.38;2.25;;;20.50;99.90;;;;;;5090343;28;20028;-84
2022/08/09 01:27:27;;;;;;;5.63;2.83;;;20.50;99.90;;;;;;5089742;28;20507;-83
2022/08/09 01:29:59;;;;;;;4.60;2.30;;;20.50;99.90;;;;;;5107701;28;20024;-82
2022/08/09 01:32:41;;;;;;;3.40;2.28;;;20.60;99.90;;;;;;5106618;28;20049;-82
2022/08/09 01:35:16;;;;;;;3.42;2.33;;;20.60;99.90;;;;;;5089004;28;20024;-84
2022/08/09 01:37:44;;;;;;;7.68;2.80;;;20.60;99.90;;;;;;5089344;28;20679;-83
2022/08/09 01:40:13;;;;;;;4.60;2.65;;;20.70;99.90;;;;;;5107686;28;20126;-84
2022/08/09 01:42:39;;;;;;;4.20;2.63;;;20.70;99.90;;;;;;5107647;28;20052;-83
2022/08/09 01:45:06;;;;;;;4.85;2.50;;;20.70;99.90;;;;;;5107702;28;20039;-83
2022/08/09 01:47:32;;;;;;;5.43;2.60;;;20.70;99.90;;;;;;5106172;28;20019;-83
2022/08/09 01:50:03;;;;;;;4.75;3.15;;;20.70;99.90;;;;;;5088560;28;20038;-83
2022/08/09 01:52:29;;;;;;;3.67;2.53;;;20.70;99.90;;;;;;5089147;28;20015;-83
2022/08/09 01:54:56;;;;;;;5.10;2.63;;;20.70;99.90;;;;;;5088562;28;20038;-80
2022/08/09 01:57:36;;;;;;;8.70;2.55;;;20.70;99.90;;;;;;5088748;28;20504;-81
2022/08/09 02:00:05;;;;;;;6.05;3.00;;;20.70;99.90;;;;;;5088630;28;20415;-79
2022/08/09 02:02:33;;;;;;;9.85;3.97;;;20.70;99.90;;;;;;5088523;28;20551;-80
2022/08/09 02:05:03;;;;;;;4.57;3.17;;;20.70;99.90;;;;;;5088170;28;20027;-80
2022/08/09 02:07:33;;;;;;;4.38;2.83;;;20.60;99.90;;;;;;5107122;28;20024;-81
2022/08/09 02:10:08;;;;;;;4.20;2.83;;;20.70;99.90;;;;;;5088722;28;20507;-79
2022/08/09 02:12:34;;;;;;;4.13;2.58;;;20.60;99.90;;;;;;5088255;28;20047;-80
2022/08/09 02:15:03;;;;;;;3.70;2.67;;;20.60;99.90;;;;;;5090096;28;20030;-80
2022/08/09 02:17:30;;;;;;;5.03;2.78;;;20.60;99.90;;;;;;5106511;28;20086;-80
2022/08/09 02:19:57;;;;;;;4.28;3.03;;;20.60;99.90;;;;;;5088235;28;20020;-80
2022/08/09 02:22:44;;;;;;;4.93;2.90;;;20.60;99.90;;;;;;5088539;28;20036;-80
2022/08/09 02:25:11;;;;;;;;;;;20.60;99.90;;;;;;5107070;28;20076;-80
2022/08/09 02:27:41;;;;;;;6.28;2.40;;;20.60;99.90;;;;;;5106872;28;19904;-80
2022/08/09 02:30:08;;;;;;;5.55;2.22;;;20.70;99.90;;;;;;5106495;28;20476;-80
2022/08/09 02:32:37;;;;;;;4.75;2.55;;;20.70;99.90;;;;;;5106542;28;20031;-81
2022/08/09 02:35:06;;;;;;;9.05;3.53;;;20.70;99.90;;;;;;5106815;28;20085;-80
2022/08/09 02:37:36;;;;;;;5.03;2.67;;;20.70;99.90;;;;;;5106782;28;20043;-80
2022/08/09 02:40:06;;;;;;;7.72;3.00;;;20.70;99.90;;;;;;5088269;28;20480;-79
2022/08/09 02:42:39;;;;;;;3.75;2.67;;;20.70;99.90;;;;;;5087961;28;20032;-80
2022/08/09 02:45:10;;;;;;;4.50;3.05;;;20.60;99.90;;;;;;5106558;28;20028;-81
2022/08/09 02:47:37;;;;;;;7.55;3.08;;;20.60;99.90;;;;;;5090836;28;20226;-80
2022/08/09 02:50:23;;;;;;;6.97;2.72;;;20.60;99.90;;;;;;5091481;28;20035;-81
2022/08/09 02:53:00;;;;;;;5.65;2.83;;;20.60;99.90;;;;;;5110474;28;20059;-81
2022/08/09 02:55:27;;;;;;;8.10;2.83;;;20.50;99.90;;;;;;5092898;28;20024;-80
2022/08/09 02:57:55;;;;;;;3.67;2.25;;;20.50;99.90;;;;;;5091717;28;20042;-81
2022/08/09 03:00:23;;;;;;;5.63;3.70;;;20.50;99.90;;;;;;5086040;28;20406;-81
2022/08/09 03:02:53;;;;;;;2.90;2.45;;;20.50;99.90;;;;;;5091936;28;20040;-80
2022/08/09 03:05:20;;;;;;;7.22;3.13;;;20.50;99.90;;;;;;5110182;28;20384;-80
2022/08/09 03:07:48;;;;;;;6.55;3.47;;;20.50;99.90;;;;;;5091378;28;20028;-79
2022/08/09 03:10:15;;;;;;;8.90;2.90;;;20.50;99.90;;;;;;5091246;28;20088;-80
2022/08/09 03:12:42;;;;;;;13.15;3.20;;;20.50;99.90;;;;;;5091867;28;20026;-80
2022/08/09 03:15:10;;;;;;;9.10;3.25;;;20.50;99.90;;;;;;5091308;28;20107;-80
2022/08/09 03:17:36;;;;;;;6.55;2.90;;;20.40;99.90;;;;;;5091301;28;20048;-80
2022/08/09 03:20:04;;;;;;;6.80;3.42;;;20.30;99.90;;;;;;5109381;28;20026;-80
2022/08/09 03:22:34;;;;;;;9.50;2.70;;;20.30;99.90;;;;;;5109976;28;20020;-80
2022/08/09 03:24:59;;;;;;;8.82;2.78;;;20.30;99.90;;;;;;5109425;28;20024;-78
2022/08/09 03:27:27;;;;;;;5.85;3.60;;;20.30;99.90;;;;;;5111001;27;20454;-80
2022/08/09 03:29:55;;;;;;;7.13;2.85;;;20.20;99.90;;;;;;5129694;27;20028;-80
2022/08/09 03:32:22;;;;;;;7.78;3.65;;;20.20;99.90;;;;;;5095695;28;20213;-81
2022/08/09 03:34:48;;;;;;;9.68;3.47;;;20.10;99.90;;;;;;5109526;28;20472;-79
2022/08/09 03:37:14;;;;;;;5.25;2.95;;;20.20;99.90;;;;;;5109045;28;20507;-79
2022/08/09 03:39:39;;;;;;;7.20;3.75;;;20.20;99.90;;;;;;5090976;28;20553;-79
2022/08/09 03:42:05;;;;;;;8.18;3.45;;;20.20;99.90;;;;;;5109204;28;20801;-80
2022/08/09 03:44:31;;;;;;;7.70;3.28;;;20.20;99.90;;;;;;5090928;28;20031;-79
2022/08/09 03:46:56;;;;;;;10.98;3.67;;;20.20;99.90;;;;;;5090239;28;20047;-80
2022/08/09 03:49:26;;;;;;;6.82;2.92;;;20.10;99.90;;;;;;5109138;28;20396;-79
2022/08/09 03:51:56;;;;;;;6.22;3.55;;;20.20;99.90;;;;;;5090333;28;20031;-79
2022/08/09 03:54:25;;;;;;;7.18;3.42;;;20.20;99.90;;;;;;5090898;28;20076;-79
2022/08/09 03:56:52;;;;;;;8.50;3.45;;;20.10;99.90;;;;;;5090550;28;20168;-79
2022/08/09 03:59:17;;;;;;;5.90;2.65;;;20.10;99.90;;;;;;5108443;28;20457;-80
2022/08/09 04:01:44;;;;;;;8.70;3.20;;;20.00;99.90;;;;;;5089929;28;20020;-78
2022/08/09 04:04:10;;;;;;;10.25;3.13;;;20.00;99.90;;;;;;5108418;28;20042;-79
2022/08/09 04:06:37;;;;;;;4.90;2.78;;;20.00;99.90;;;;;;5090497;28;20027;-79
2022/08/09 04:09:05;;;;;;;8.65;3.47;;;19.90;99.90;;;;;;5089988;28;20035;-79
2022/08/09 04:11:45;;;;;;;6.75;3.40;;;19.80;99.90;;;;;;5090692;28;20412;-80
2022/08/09 04:14:11;;;;;;;8.90;3.15;;;19.80;99.90;;;;;;5090123;28;20039;-80
2022/08/09 04:16:37;;;;;;;5.15;2.78;;;19.80;99.90;;;;;;5089850;28;20047;-79
2022/08/09 04:19:03;;;;;;;4.45;2.83;;;19.80;99.90;;;;;;5090053;28;20459;-80
2022/08/09 04:21:28;;;;;;;8.07;2.63;;;19.90;99.90;;;;;;5090337;28;20020;-81
2022/08/09 04:23:54;;;;;;;5.72;3.47;;;19.90;99.90;;;;;;5090413;28;20135;-81
2022/08/09 04:26:20;;;;;;;4.47;3.10;;;19.90;99.90;;;;;;5108552;28;20389;-81
2022/08/09 04:28:45;;;;;;;5.93;4.00;;;19.90;99.90;;;;;;5109163;28;20036;-80
2022/08/09 04:31:11;;;;;;;5.50;3.10;;;19.90;99.90;;;;;;5089528;28;20059;-80
2022/08/09 04:33:38;;;;;;;9.07;3.40;;;19.80;99.90;;;;;;5108582;28;20035;-80
2022/08/09 04:36:04;;;;;;;6.43;3.95;;;19.90;99.90;;;;;;5089450;28;20762;-79
2022/08/09 04:38:29;;;;;;;5.40;3.10;;;19.90;99.90;;;;;;5108501;28;20035;-79
2022/08/09 04:40:56;;;;;;;6.63;3.40;;;19.90;99.90;;;;;;5108153;28;20042;-81
2022/08/09 04:43:22;;;;;;;8.30;3.42;;;20.00;99.90;;;;;;5109641;28;20031;-82
2022/08/09 04:45:48;;;;;;;4.95;2.92;;;20.00;99.90;;;;;;5090380;28;20096;-81
2022/08/09 04:48:14;;;;;;;9.35;3.25;;;20.10;99.90;;;;;;5089816;28;20123;-81
2022/08/09 04:50:41;;;;;;;9.02;3.75;;;20.30;99.90;;;;;;5090574;28;20045;-82
2022/08/09 04:53:07;;;;;;;6.38;3.13;;;20.40;99.90;;;;;;5090027;28;20043;-80
2022/08/09 04:55:34;;;;;;;7.45;3.15;;;20.60;99.90;;;;;;5089963;28;20023;-80
2022/08/09 04:58:00;;;;;;;118.80;88.47;;;20.70;99.90;;;;;;5108162;28;20476;-81
2022/08/09 05:00:25;;;;;;;12.20;6.07;;;20.90;99.90;;;;;;5089370;28;20034;-80
2022/08/09 05:02:51;;;;;;;5.93;3.78;;;21.00;99.90;;;;;;5107636;28;20411;-81
2022/08/09 05:05:17;;;;;;;8.55;3.22;;;21.10;99.90;;;;;;5107595;28;20031;-81
2022/08/09 05:07:42;;;;;;;8.65;3.97;;;21.20;99.90;;;;;;5088908;28;20123;-80
2022/08/09 05:10:08;;;;;;;8.57;3.30;;;21.20;99.90;;;;;;5089137;28;20059;-80
2022/08/09 05:12:34;;;;;;;6.38;3.40;;;21.30;99.90;;;;;;5089487;28;20023;-81
2022/08/09 05:15:00;;;;;;;12.13;3.20;;;21.30;99.90;;;;;;5089020;28;20023;-81
2022/08/09 05:17:25;;;;;;;13.93;3.90;;;21.40;99.90;;;;;;5089369;28;20051;-81
2022/08/09 05:19:52;;;;;;;6.20;3.33;;;21.50;99.90;;;;;;5089083;28;20080;-81
2022/08/09 05:22:18;;;;;;;7.15;3.92;;;21.50;99.90;;;;;;5089617;28;20111;-82
2022/08/09 05:24:43;;;;;;;8.85;4.18;;;21.60;99.90;;;;;;5089398;28;20510;-80
2022/08/09 05:27:09;;;;;;;7.18;4.20;;;22.00;99.90;;;;;;5088708;28;20027;-81
2022/08/09 05:29:35;;;;;;;8.93;4.78;;;22.40;99.90;;;;;;5087696;28;20108;-81
2022/08/09 05:32:00;;;;;;;6.95;4.07;;;22.80;99.90;;;;;;5089105;28;20165;-80
2022/08/09 05:34:28;;;;;;;12.90;3.85;;;23.10;99.90;;;;;;5107176;28;20035;-81
2022/08/09 05:36:55;;;;;;;7.38;4.45;;;23.40;99.90;;;;;;5088034;28;20031;-80
2022/08/09 05:39:21;;;;;;;8.93;4.68;;;23.60;99.90;;;;;;5088650;28;20134;-81
2022/08/09 05:41:47;;;;;;;6.45;4.20;;;23.90;99.90;;;;;;5088846;28;20492;-80
2022/08/09 05:44:12;;;;;;;7.25;4.40;;;24.20;99.90;;;;;;5087074;28;20023;-80
2022/08/09 05:46:38;;;;;;;8.68;3.72;;;24.50;99.90;;;;;;5088217;28;20023;-81
2022/08/09 05:49:04;;;;;;;6.85;3.70;;;24.90;99.40;;;;;;5088047;28;20441;-81
2022/08/09 05:51:29;;;;;;;10.07;3.60;;;25.20;98.70;;;;;;5087672;28;20396;-81
2022/08/09 05:53:55;;;;;;;10.75;3.70;;;25.80;97.60;;;;;;5106889;28;20103;-81
2022/08/09 05:56:20;;;;;;;9.88;3.40;;;26.30;96.30;;;;;;5106042;28;20043;-81
2022/08/09 05:58:46;;;;;;;7.22;4.10;;;26.60;95.60;;;;;;5087759;28;20411;-81
2022/08/09 06:01:12;;;;;;;8.77;3.50;;;26.90;94.90;;;;;;5086919;28;20499;-80
2022/08/09 06:03:37;;;;;;;8.60;4.15;;;27.30;94.20;;;;;;5088470;28;20034;-82
2022/08/09 06:06:03;;;;;;;5.57;3.53;;;28.00;93.00;;;;;;5088444;28;20031;-80
2022/08/09 06:08:29;;;;;;;7.78;3.50;;;28.50;91.20;;;;;;5105511;28;20027;-79
2022/08/09 06:10:55;;;;;;;9.05;3.95;;;28.60;90.00;;;;;;5087723;28;20026;-82
2022/08/09 06:13:21;;;;;;;8.10;3.22;;;28.60;87.60;;;;;;5106536;28;20055;-81
2022/08/09 06:15:48;;;;;;;8.07;3.28;;;29.10;86.70;;;;;;5087684;28;20157;-82
2022/08/09 06:18:14;;;;;;;14.80;3.40;;;29.90;82.60;;;;;;5105617;28;20047;-82
2022/08/09 06:20:40;;;;;;;9.30;3.60;;;30.50;77.80;;;;;;5105706;28;20754;-82
2022/08/09 06:23:06;;;;;;;7.70;3.05;;;31.70;72.30;;;;;;5089502;28;20059;-82
2022/08/09 06:25:32;;;;;;;6.18;3.20;;;32.00;68.50;;;;;;5087457;28;20113;-82
2022/08/09 06:27:58;;;;;;;8.95;3.92;;;32.40;67.50;;;;;;5109855;28;20024;-82
2022/08/09 06:30:24;;;;;;;13.43;4.25;;;32.70;64.90;;;;;;5085796;28;20035;-83
2022/08/09 06:32:54;;;;;;;5.57;3.42;;;33.30;60.70;;;;;;5108798;28;20404;-84
2022/08/09 06:35:20;;;;;;;13.25;3.35;;;32.40;60.40;;;;;;5092622;28;20027;-82
2022/08/09 06:37:46;;;;;;;11.35;3.58;;;31.90;61.80;;;;;;5091620;28;20491;-83
2022/08/09 06:40:12;;;;;;;7.28;3.15;;;32.10;61.30;;;;;;5091491;28;20032;-82
2022/08/09 06:42:37;;;;;;;10.75;3.10;;;32.60;59.50;;;;;;5092092;28;20020;-82
2022/08/09 06:45:03;;;;;;;10.05;2.67;;;32.90;58.00;;;;;;5092021;28;20035;-83
2022/08/09 06:47:29;;;;;;;5.30;3.10;;;33.40;56.70;;;;;;5091180;28;20020;-82
2022/08/09 06:49:54;;;;;;;12.10;3.20;;;33.90;55.50;;;;;;5092103;28;20023;-82
2022/08/09 06:52:20;;;;;;;5.97;3.58;;;34.40;53.90;;;;;;5091567;28;20123;-82
2022/08/09 06:54:46;;;;;;;9.57;3.30;;;34.60;53.10;;;;;;5110232;28;20038;-83
2022/08/09 06:57:13;;;;;;;9.82;2.90;;;34.40;51.90;;;;;;5097599;28;20032;-83
2022/08/09 06:59:39;;;;;;;4.00;2.90;;;34.50;51.50;;;;;;5071359;28;20032;-82
2022/08/09 07:02:04;;;;;;;3.78;2.67;;;34.50;51.70;;;;;;5071195;28;20034;-84
2022/08/09 07:04:30;;;;;;;6.18;3.33;;;34.80;50.90;;;;;;5071239;28;20331;-82
2022/08/09 07:06:56;;;;;;;12.77;3.20;;;35.00;49.90;;;;;;5089642;28;20034;-83
2022/08/09 07:09:22;;;;;;;7.15;3.30;;;34.70;50.40;;;;;;5071466;28;20563;-82
2022/08/09 07:11:47;;;;;;;5.60;3.33;;;35.00;49.90;;;;;;5098620;28;20097;-83
2022/08/09 07:14:16;;;;;;;5.82;3.38;;;35.00;49.10;;;;;;5109139;28;20161;-83
2022/08/09 07:16:45;;;;;;;6.57;4.05;;;35.10;48.90;;;;;;5091235;28;20055;-83
2022/08/09 07:19:12;;;;;;;6.43;2.75;;;35.10;49.10;;;;;;5091247;28;20042;-84
2022/08/09 07:21:38;;;;;;;4.60;2.88;;;35.20;47.90;;;;;;5091751;28;20060;-85
2022/08/09 07:24:05;;;;;;;6.25;2.63;;;35.40;47.40;;;;;;5091493;28;20031;-82
2022/08/09 07:26:30;;;;;;;10.30;2.85;;;35.30;47.00;;;;;;5090483;28;20030;-83
2022/08/09 07:28:56;;;;;;;11.63;2.67;;;35.40;46.60;;;;;;5090011;28;20028;-84
2022/08/09 07:31:22;;;;;;;14.18;2.90;;;35.50;46.30;;;;;;5090966;28;20027;-83
2022/08/09 07:33:48;;;;;;;4.60;2.85;;;35.60;46.10;;;;;;5090831;28;20068;-83
2022/08/09 07:36:14;;;;;;;9.18;2.63;;;35.80;45.30;;;;;;5108799;28;20553;-83
2022/08/09 07:38:40;;;;;;;4.43;2.85;;;35.90;44.50;;;;;;5102641;28;20431;-83
2022/08/09 07:41:06;;;;;;;4.07;2.78;;;36.20;43.10;;;;;;5091388;28;20024;-83
2022/08/09 07:43:32;;;;;;;3.90;2.63;;;35.70;44.10;;;;;;5070123;28;20032;-83
2022/08/09 07:45:57;;;;;;;4.30;2.72;;;35.70;43.40;;;;;;5070571;28;20027;-82
2022/08/09 07:48:23;;;;;;;11.20;2.83;;;35.60;43.90;;;;;;5070696;28;20028;-83
2022/08/09 07:50:49;;;;;;;8.85;3.00;;;35.70;43.20;;;;;;5070197;28;20540;-82
2022/08/09 07:53:15;;;;;;;12.27;3.10;;;35.70;43.20;;;;;;5088201;28;20411;-82
2022/08/09 07:55:40;;;;;;;6.57;2.60;;;35.90;42.70;;;;;;5070339;28;20032;-83
2022/08/09 07:58:06;;;;;;;6.35;2.72;;;36.00;42.60;;;;;;5070436;28;20497;-83
2022/08/09 08:00:32;;;;;;;11.23;2.47;;;36.10;43.30;;;;;;5072309;28;20718;-83
2022/08/09 08:02:59;;;;;;;8.00;3.03;;;36.10;42.40;;;;;;5090085;28;20031;-81
2022/08/09 08:05:25;;;;;;;7.00;2.65;;;36.20;41.80;;;;;;5095431;27;20019;-82
2022/08/09 08:07:52;;;;;;;11.15;2.65;;;36.60;41.70;;;;;;5110395;27;20095;-83
2022/08/09 08:10:18;;;;;;;4.95;2.38;;;36.80;41.30;;;;;;5090961;28;20454;-83
2022/08/09 08:12:44;;;;;;;9.27;3.30;;;37.20;40.20;;;;;;5090356;28;20028;-84
2022/08/09 08:15:12;;;;;;;5.93;2.83;;;37.40;39.90;;;;;;5108885;28;20027;-85
2022/08/09 08:17:38;;;;;;;5.53;2.70;;;37.20;39.50;;;;;;5108500;28;20043;-83
2022/08/09 08:20:04;;;;;;;6.85;2.63;;;37.10;39.50;;;;;;5090084;28;20054;-84
2022/08/09 08:22:30;;;;;;;5.50;2.92;;;37.30;39.50;;;;;;5090256;28;20051;-84
2022/08/09 08:24:56;;;;;;;6.43;3.00;;;37.40;38.80;;;;;;5108668;28;20066;-84
2022/08/09 08:27:24;;;;;;;7.88;2.47;;;37.50;39.30;;;;;;5089976;28;20023;-83
2022/08/09 08:29:50;;;;;;;12.23;2.67;;;37.50;38.80;;;;;;5090232;28;20450;-84
2022/08/09 08:32:18;;;;;;;6.25;2.20;;;37.70;38.50;;;;;;5090346;28;20400;-83
2022/08/09 08:34:44;;;;;;;4.70;2.40;;;37.70;38.40;;;;;;5089924;28;20038;-84
2022/08/09 08:37:09;;;;;;;4.03;2.85;;;38.30;38.00;;;;;;5090499;28;20023;-84
2022/08/09 08:39:35;;;;;;;3.70;2.80;;;38.30;37.50;;;;;;5132091;27;20072;-84
2022/08/09 08:42:01;;;;;;;6.18;2.72;;;38.60;37.40;;;;;;5130499;27;20027;-85
2022/08/09 08:44:34;;;;;;;17.10;2.58;;;38.90;37.50;;;;;;5096588;28;20027;-84
2022/08/09 08:47:00;;;;;;;6.68;2.97;;;39.00;35.80;;;;;;5091050;28;20023;-84
2022/08/09 08:49:26;;;;;;;2.95;2.28;;;38.90;36.50;;;;;;5090964;28;20076;-83
2022/08/09 08:51:52;;;;;;;5.63;2.60;;;39.00;36.70;;;;;;5108534;28;20118;-85
2022/08/09 08:54:18;;;;;;;4.35;2.47;;;39.20;35.20;;;;;;5090379;28;20035;-85
2022/08/09 08:56:44;;;;;;;5.85;2.92;;;39.20;34.90;;;;;;5088648;28;20024;-83
2022/08/09 08:59:12;;;;;;;5.80;2.75;;;38.50;35.00;;;;;;5066244;28;20044;-81
2022/08/09 09:01:41;;;;;;;8.85;2.90;;;37.80;36.10;;;;;;5077609;28;20451;-82
2022/08/09 09:04:09;;;;;;;9.05;2.47;;;36.80;37.70;;;;;;5089400;28;20032;-82
2022/08/09 09:06:41;;;;;;;5.10;2.92;;;36.30;37.50;;;;;;5106810;28;20028;-82
2022/08/09 09:09:07;;;;;;;6.78;3.05;;;35.90;38.30;;;;;;5089132;28;20847;-83
2022/08/09 09:11:34;;;;;;;8.20;2.72;;;36.00;38.60;;;;;;5089029;28;20091;-82
2022/08/09 09:14:08;;;;;;;3.70;2.28;;;34.90;38.90;;;;;;5107716;28;20032;-82
2022/08/09 09:16:34;;;;;;;4.80;3.10;;;35.30;39.70;;;;;;5088884;28;20504;-83
2022/08/09 09:19:04;;;;;;;4.80;2.65;;;35.90;38.90;;;;;;5087975;28;20084;-82
2022/08/09 09:21:30;;;;;;;4.80;2.17;;;36.40;38.70;;;;;;5088940;28;20126;-83
2022/08/09 09:24:03;;;;;;;4.35;2.20;;;37.10;37.60;;;;;;5106768;28;20391;-82
2022/08/09 09:26:29;;;;;;;11.23;2.75;;;36.70;36.60;;;;;;5088829;28;20058;-81
2022/08/09 09:28:55;;;;;;;7.68;2.28;;;35.80;38.10;;;;;;5098539;28;20066;-82
2022/08/09 09:31:23;;;;;;;6.32;2.33;;;36.00;38.90;;;;;;5093301;28;20063;-81
2022/08/09 09:33:49;;;;;;;5.78;2.17;;;36.50;38.60;;;;;;5088987;28;20478;-82
2022/08/09 09:36:15;;;;;;;6.22;2.10;;;37.20;37.50;;;;;;5088431;28;20024;-81
2022/08/09 09:38:48;;;;;;;6.15;2.05;;;37.40;36.80;;;;;;5104995;28;20051;-83
2022/08/09 09:41:23;;;;;;;4.40;2.30;;;37.10;35.60;;;;;;5084747;28;20062;-81
2022/08/09 09:43:59;;;;;;;6.75;2.58;;;35.80;37.10;;;;;;5089990;28;20114;-83
2022/08/09 09:46:34;;;;;;;4.90;2.58;;;34.80;38.40;;;;;;5089791;28;20059;-82
2022/08/09 09:49:09;;;;;;;8.37;2.50;;;34.10;39.20;;;;;;5090387;28;20114;-83
2022/08/09 09:51:36;;;;;;;4.63;2.38;;;33.40;40.00;;;;;;5090460;28;20030;-83
2022/08/09 09:54:12;;;;;;;3.65;1.95;;;32.80;41.40;;;;;;5088817;28;20034;-81
2022/08/09 09:56:43;;;;;;;5.05;2.65;;;32.70;41.30;;;;;;5088754;28;20024;-83
2022/08/09 09:59:15;;;;;;;5.13;2.33;;;32.50;41.20;;;;;;5088525;28;20040;-82
2022/08/09 10:01:41;;;;;;;5.35;2.50;;;32.10;42.20;;;;;;5089059;28;20074;-84
2022/08/09 10:04:13;;;;;;;4.25;2.22;;;31.60;43.70;;;;;;5088229;28;20032;-82
2022/08/09 10:06:41;;;;;;;14.65;2.75;;;31.50;43.80;;;;;;5090076;28;20488;-82
2022/08/09 10:09:08;;;;;;;9.57;2.85;;;31.10;45.10;;;;;;5089994;28;20020;-82
2022/08/09 10:11:34;;;;;;;3.50;2.72;;;30.90;44.70;;;;;;5087970;28;20412;-82
2022/08/09 10:14:00;;;;;;;3.85;2.35;;;30.70;45.00;;;;;;5107496;28;20080;-83
2022/08/09 10:16:29;;;;;;;9.52;2.75;;;30.70;45.40;;;;;;5107805;28;20070;-82
2022/08/09 10:18:57;;;;;;;3.58;2.38;;;30.70;45.40;;;;;;5089421;28;20043;-81
2022/08/09 10:21:23;;;;;;;7.30;2.67;;;30.80;45.90;;;;;;5091038;28;20038;-82
2022/08/09 10:23:50;;;;;;;10.45;2.75;;;30.90;45.80;;;;;;5107052;28;20024;-82
2022/08/09 10:26:16;;;;;;;5.15;3.08;;;30.90;45.40;;;;;;5089204;28;20080;-83
2022/08/09 10:28:43;;;;;;;5.85;2.58;;;30.90;45.60;;;;;;5107459;28;20035;-84
2022/08/09 10:31:12;;;;;;;4.88;3.08;;;30.90;45.80;;;;;;5088685;28;20027;-83
2022/08/09 10:33:38;;;;;;;4.47;2.33;;;31.10;45.30;;;;;;5069785;28;20081;-83
2022/08/09 10:36:05;;;;;;;4.95;2.72;;;31.20;44.70;;;;;;5069230;28;20024;-83
2022/08/09 10:38:31;;;;;;;4.32;2.78;;;31.40;45.40;;;;;;5069413;28;20043;-84
2022/08/09 10:40:57;;;;;;;6.70;3.05;;;31.60;44.60;;;;;;5106925;28;20436;-84
2022/08/09 10:43:25;;;;;;;5.50;2.72;;;31.40;44.90;;;;;;5090742;28;20391;-85
2022/08/09 10:45:51;;;;;;;5.13;2.70;;;31.30;45.50;;;;;;5090546;28;20024;-85
2022/08/09 10:48:28;;;;;;;8.05;2.97;;;31.20;45.60;;;;;;5108812;28;20016;-83
2022/08/09 10:51:16;;;;;;;4.30;2.70;;;31.20;45.40;;;;;;5088288;28;20032;-85
2022/08/09 10:53:54;;;;;;;5.78;2.60;;;31.20;45.70;;;;;;5069650;28;20024;-85
2022/08/09 10:56:28;;;;;;;4.13;2.78;;;31.00;45.40;;;;;;5069717;28;20027;-85
2022/08/09 10:58:56;;;;;;;4.57;2.28;;;31.20;46.10;;;;;;5071035;28;20035;-84
2022/08/09 11:01:31;;;;;;;6.60;2.55;;;31.30;45.60;;;;;;5087550;28;20027;-84
2022/08/09 11:04:14;;;;;;;4.70;2.47;;;31.70;45.40;;;;;;5080831;28;20054;-83
2022/08/09 11:06:44;;;;;;;5.72;2.60;;;31.80;45.30;;;;;;5082170;28;20028;-84
2022/08/09 11:09:14;;;;;;;6.68;2.72;;;31.80;44.70;;;;;;5080132;28;20051;-83
2022/08/09 11:12:18;;;;;;;4.93;2.92;;;31.70;44.80;;;;;;5093140;28;20031;-84
2022/08/09 11:14:50;;;;;;;4.53;2.95;;;31.80;46.00;;;;;;5089805;28;20028;-84
2022/08/09 11:17:15;;;;;;;10.18;2.85;;;32.00;45.10;;;;;;5093278;28;20415;-86
2022/08/09 11:19:54;;;;;;;8.00;3.13;;;31.90;44.40;;;;;;5094000;28;20126;-84
2022/08/09 11:22:43;;;;;;;8.02;2.60;;;31.70;44.90;;;;;;5110417;28;20103;-85
2022/08/09 11:25:15;;;;;;;9.63;3.00;;;31.30;45.00;;;;;;5076130;28;20151;-85
2022/08/09 11:27:45;;;;;;;4.10;2.45;;;31.10;45.50;;;;;;5093737;28;20024;-86
2022/08/09 11:30:21;;;;;;;3.75;2.55;;;31.00;45.40;;;;;;5092557;28;20495;-83
2022/08/09 11:32:53;;;;;;;4.75;2.67;;;30.90;46.30;;;;;;5125313;27;20047;-83
2022/08/09 11:35:27;;;;;;;4.10;2.35;;;30.90;46.00;;;;;;5112490;27;20212;-85
2022/08/09 11:37:58;;;;;;;7.88;2.67;;;31.00;46.10;;;;;;5131858;27;20122;-86
2022/08/09 11:40:31;;;;;;;5.72;2.63;;;30.90;45.30;;;;;;5115682;27;20050;-83
2022/08/09 11:42:59;;;;;;;7.40;2.75;;;30.70;45.80;;;;;;5091565;28;20023;-84
2022/08/09 11:45:41;;;;;;;3.15;2.20;;;30.70;46.80;;;;;;5091744;28;20122;-86
2022/08/09 11:48:10;;;;;;;9.23;3.20;;;30.70;46.90;;;;;;5093915;28;20119;-86
2022/08/09 11:50:58;;;;;;;7.30;2.92;;;30.80;45.90;;;;;;5093812;28;20472;-84
2022/08/09 11:53:30;;;;;;;4.10;2.40;;;30.70;46.20;;;;;;5094470;28;20042;-84
2022/08/09 11:56:20;;;;;;;5.43;2.60;;;30.60;46.60;;;;;;5086264;28;20024;-86
2022/08/09 11:59:08;;;;;;;3.40;2.45;;;30.60;47.00;;;;;;5074685;28;20044;-86
2022/08/09 12:01:43;;;;;;;5.78;2.42;;;30.50;46.70;;;;;;5074016;28;20032;-86
2022/08/09 12:04:12;;;;;;;8.77;2.88;;;30.30;47.40;;;;;;5099083;27;20022;-84
2022/08/09 12:06:39;;;;;;;7.05;2.70;;;30.20;47.20;;;;;;5092089;28;20042;-83
2022/08/09 12:09:08;;;;;;;7.25;2.92;;;30.10;47.00;;;;;;5091541;28;20563;-84
2022/08/09 12:11:34;;;;;;;4.97;2.80;;;29.90;47.80;;;;;;5107949;28;20095;-81
2022/08/09 12:14:05;;;;;;;6.18;2.40;;;29.80;47.80;;;;;;5090102;28;20130;-82
2022/08/09 12:16:38;;;;;;;3.47;2.53;;;29.80;48.30;;;;;;5109292;28;20050;-82
2022/08/09 12:19:07;;;;;;;6.80;2.88;;;29.90;47.70;;;;;;5107445;28;20028;-84
2022/08/09 12:21:50;;;;;;;6.93;2.08;;;30.10;47.60;;;;;;5091234;28;20032;-83
2022/08/09 12:24:21;;;;;;;3.80;2.40;;;30.30;47.20;;;;;;5090702;28;20020;-84
2022/08/09 12:26:54;;;;;;;6.30;2.72;;;30.40;46.80;;;;;;5090406;28;20028;-82
2022/08/09 12:29:25;;;;;;;4.05;2.70;;;30.40;46.80;;;;;;5090224;28;20034;-83
2022/08/09 12:32:09;;;;;;;3.33;2.58;;;30.50;47.30;;;;;;5090118;28;20549;-83
2022/08/09 12:34:40;;;;;;;5.80;3.20;;;30.70;47.40;;;;;;5086769;28;20032;-82
2022/08/09 12:37:08;;;;;;;5.57;2.13;;;30.80;46.40;;;;;;5105879;28;20042;-81
2022/08/09 12:39:33;;;;;;;4.35;2.55;;;30.90;46.20;;;;;;5080106;28;20033;-82
2022/08/09 12:42:07;;;;;;;5.22;3.00;;;31.00;46.50;;;;;;5086168;28;20041;-83
2022/08/09 12:44:39;;;;;;;11.00;2.67;;;30.90;45.90;;;;;;5106566;27;20039;-82
2022/08/09 12:47:06;;;;;;;7.82;2.75;;;30.80;45.70;;;;;;5089336;28;20055;-82
2022/08/09 12:49:33;;;;;;;2.55;2.33;;;30.60;46.30;;;;;;5089132;27;20467;-83
2022/08/09 12:51:59;;;;;;;5.95;2.63;;;30.50;46.30;;;;;;5086542;27;20033;-82